createdAt,value
2023-10-07T00:00:14.681Z,4.38
2023-10-07T00:01:24.085Z,4.32
2023-10-07T00:02:32.365Z,4.32
2023-10-07T00:03:35.643Z,3.90
2023-10-07T00:04:40.075Z,4.47
2023-10-07T00:05:44.332Z,5.25
2023-10-07T00:06:47.368Z,4.82
2023-10-07T00:07:49.962Z,4.28
2023-10-07T00:08:52.507Z,5.07
2023-10-07T00:09:56.593Z,4.38
2023-10-07T00:11:01.291Z,5.10
2023-10-07T00:12:04.335Z,4.63
2023-10-07T00:13:11.187Z,4.70
2023-10-07T00:14:13.818Z,4.88
2023-10-07T00:15:16.352Z,4.50
2023-10-07T00:16:19.657Z,4.93
2023-10-07T00:17:22.800Z,4.53
2023-10-07T00:18:26.939Z,4.57
2023-10-07T00:19:29.767Z,5.40
2023-10-07T00:20:34.955Z,4.10
2023-10-07T00:21:56.737Z,4.32
2023-10-07T00:23:02.312Z,4.97
2023-10-07T00:24:07.724Z,3.88
2023-10-07T00:25:13.839Z,4.57
2023-10-07T00:26:16.618Z,4.68
2023-10-07T00:27:27.948Z,4.43
2023-10-07T00:28:37.066Z,4.25
2023-10-07T00:29:54.364Z,4.13
2023-10-07T00:31:03.773Z,4.30
2023-10-07T00:32:06.784Z,4.50
2023-10-07T00:33:11.253Z,4.63
2023-10-07T00:34:16.464Z,4.38
2023-10-07T00:35:21.548Z,4.43
2023-10-07T00:36:36.179Z,4.57
2023-10-07T00:37:47.438Z,4.88
2023-10-07T00:38:52.953Z,4.28
2023-10-07T00:39:55.694Z,4.95
2023-10-07T00:40:58.647Z,4.65
2023-10-07T00:42:01.457Z,5.10
2023-10-07T00:43:09.837Z,4.50
2023-10-07T00:44:22.294Z,4.70
2023-10-07T00:45:28.622Z,5.07
2023-10-07T00:46:36.337Z,5.07
2023-10-07T00:47:41.881Z,4.45
2023-10-07T00:48:49.334Z,4.88
2023-10-07T00:49:55.697Z,5.35
2023-10-07T00:50:59.181Z,5.05
2023-10-07T00:52:04.822Z,4.80
2023-10-07T00:53:10.859Z,4.53
2023-10-07T00:54:33.850Z,4.45
2023-10-07T00:55:37.488Z,4.82
2023-10-07T00:56:43.670Z,4.63
2023-10-07T00:57:56.304Z,4.38
2023-10-07T00:58:59.980Z,4.97
2023-10-07T01:00:22.360Z,4.35
2023-10-07T01:01:30.324Z,4.70
2023-10-07T01:02:33.140Z,4.00
2023-10-07T01:03:49.221Z,3.80
2023-10-07T01:04:52.849Z,4.88
2023-10-07T01:05:57.119Z,5.45
2023-10-07T01:08:07.986Z,4.30
2023-10-07T01:09:16.296Z,4.57
2023-10-07T01:10:25.899Z,5.05
2023-10-07T01:11:31.621Z,4.75
2023-10-07T01:12:40.681Z,5.20
2023-10-07T01:13:53.540Z,5.28
2023-10-07T01:14:56.227Z,5.00
2023-10-07T01:16:00.284Z,4.90
2023-10-07T01:17:04.523Z,5.25
2023-10-07T01:18:07.835Z,4.72
2023-10-07T01:19:15.294Z,5.20
2023-10-07T01:20:18.186Z,4.45
2023-10-07T01:21:32.866Z,5.57
2023-10-07T01:22:37.273Z,4.63
2023-10-07T01:23:46.542Z,5.30
2023-10-07T01:24:50.979Z,4.40
2023-10-07T01:25:55.087Z,4.28
2023-10-07T01:27:03.636Z,4.47
2023-10-07T01:28:09.732Z,5.30
2023-10-07T01:29:16.514Z,5.13
2023-10-07T01:30:21.816Z,4.53
2023-10-07T01:31:24.742Z,3.90
2023-10-07T01:32:43.696Z,4.55
2023-10-07T01:33:49.330Z,4.85
2023-10-07T01:34:54.353Z,5.05
2023-10-07T01:36:15.753Z,5.00
2023-10-07T01:37:23.103Z,5.57
2023-10-07T01:38:26.036Z,5.53
2023-10-07T01:39:41.633Z,5.30
2023-10-07T01:40:53.406Z,5.95
2023-10-07T01:41:55.987Z,5.13
2023-10-07T01:42:59.084Z,5.55
2023-10-07T01:44:07.621Z,5.30
2023-10-07T01:45:22.908Z,5.22
2023-10-07T01:46:29.152Z,4.80
2023-10-07T01:47:31.822Z,4.93
2023-10-07T01:48:37.114Z,5.30
2023-10-07T01:49:41.083Z,5.20
2023-10-07T01:50:45.671Z,4.55
2023-10-07T01:51:48.400Z,5.43
2023-10-07T01:52:50.776Z,4.97
2023-10-07T01:53:57.459Z,5.53
2023-10-07T01:55:01.250Z,5.10
2023-10-07T01:56:06.463Z,5.22
2023-10-07T01:57:11.011Z,4.72
2023-10-07T01:58:15.326Z,5.32
2023-10-07T01:59:17.987Z,4.97
2023-10-07T02:00:39.038Z,5.15
2023-10-07T02:01:44.494Z,4.90
2023-10-07T02:02:50.605Z,6.15
2023-10-07T02:03:53.578Z,5.30
2023-10-07T02:04:58.458Z,5.00
2023-10-07T02:06:01.060Z,5.47
2023-10-07T02:07:04.031Z,5.10
2023-10-07T02:08:06.591Z,5.18
2023-10-07T02:09:09.551Z,4.95
2023-10-07T02:10:24.300Z,5.05
2023-10-07T02:11:32.312Z,5.13
2023-10-07T02:12:34.992Z,5.03
2023-10-07T02:13:38.394Z,4.78
2023-10-07T02:14:41.196Z,4.97
2023-10-07T02:15:46.274Z,5.18
2023-10-07T02:16:50.632Z,6.30
2023-10-07T02:17:58.484Z,5.63
2023-10-07T02:19:01.515Z,4.95
2023-10-07T02:20:24.155Z,5.22
2023-10-07T02:21:28.231Z,5.15
2023-10-07T02:22:32.103Z,5.68
2023-10-07T02:23:55.773Z,5.70
2023-10-07T02:25:05.521Z,5.00
2023-10-07T02:26:15.650Z,4.57
2023-10-07T02:27:19.470Z,5.65
2023-10-07T02:28:23.617Z,4.63
2023-10-07T02:29:27.909Z,5.47
2023-10-07T02:30:30.444Z,5.15
2023-10-07T02:31:43.357Z,4.43
2023-10-07T02:32:48.191Z,5.85
2023-10-07T02:34:57.068Z,4.90
2023-10-07T02:35:59.619Z,5.35
2023-10-07T02:37:13.261Z,5.10
2023-10-07T02:38:25.661Z,4.65
2023-10-07T02:39:45.229Z,5.18
2023-10-07T02:40:51.581Z,5.03
2023-10-07T02:41:58.097Z,5.07
2023-10-07T02:43:00.804Z,5.68
2023-10-07T02:44:10.188Z,5.25
2023-10-07T02:45:13.424Z,5.75
2023-10-07T02:46:36.023Z,4.70
2023-10-07T02:47:39.068Z,5.65
2023-10-07T02:48:41.730Z,5.75
2023-10-07T02:49:48.862Z,5.78
2023-10-07T02:50:53.316Z,5.22
2023-10-07T02:51:58.351Z,5.15
2023-10-07T02:53:04.346Z,5.10
2023-10-07T02:54:19.494Z,5.40
2023-10-07T02:55:23.353Z,5.13
2023-10-07T02:56:26.057Z,5.45
2023-10-07T02:57:40.437Z,4.78
2023-10-07T02:58:52.708Z,5.32
2023-10-07T03:00:01.841Z,5.93
2023-10-07T03:01:15.069Z,4.93
2023-10-07T03:02:18.623Z,5.68
2023-10-07T03:03:41.588Z,3.85
2023-10-07T03:05:00.779Z,5.50
2023-10-07T03:06:08.315Z,4.38
2023-10-07T03:07:17.665Z,5.53
2023-10-07T03:08:23.185Z,5.15
2023-10-07T03:09:35.060Z,5.40
2023-10-07T03:10:37.688Z,5.45
2023-10-07T03:11:50.390Z,4.95
2023-10-07T03:12:58.851Z,5.50
2023-10-07T03:14:03.682Z,4.95
2023-10-07T03:15:22.156Z,5.50
2023-10-07T03:16:25.269Z,5.63
2023-10-07T03:17:41.179Z,4.68
2023-10-07T03:18:49.160Z,4.55
2023-10-07T03:19:55.009Z,5.32
2023-10-07T03:21:02.273Z,5.68
2023-10-07T03:22:11.166Z,6.75
2023-10-07T03:23:17.169Z,4.90
2023-10-07T03:24:29.891Z,5.25
2023-10-07T03:25:50.853Z,5.35
2023-10-07T03:26:55.752Z,5.18
2023-10-07T03:27:58.403Z,6.35
2023-10-07T03:29:06.376Z,6.35
2023-10-07T03:30:14.352Z,5.05
2023-10-07T03:31:20.360Z,5.60
2023-10-07T03:32:24.178Z,4.40
2023-10-07T03:33:47.224Z,4.72
2023-10-07T03:34:49.846Z,5.18
2023-10-07T03:35:55.347Z,4.82
2023-10-07T03:37:09.686Z,5.30
2023-10-07T03:38:12.485Z,5.32
2023-10-07T03:39:15.853Z,5.22
2023-10-07T03:40:27.194Z,4.43
2023-10-07T03:41:35.282Z,5.22
2023-10-07T03:42:39.394Z,6.10
2023-10-07T03:43:42.659Z,5.22
2023-10-07T03:44:47.578Z,5.75
2023-10-07T03:45:50.356Z,5.68
2023-10-07T03:46:58.778Z,5.35
2023-10-07T03:48:12.012Z,5.60
2023-10-07T03:49:16.922Z,5.13
2023-10-07T03:50:30.829Z,5.90
2023-10-07T03:51:33.474Z,5.85
2023-10-07T03:52:38.878Z,5.50
2023-10-07T03:53:47.577Z,5.32
2023-10-07T03:54:50.362Z,5.95
2023-10-07T03:55:53.275Z,5.40
2023-10-07T03:56:55.624Z,5.72
2023-10-07T03:57:58.314Z,5.75
2023-10-07T03:59:01.346Z,5.00
2023-10-07T04:00:03.971Z,5.32
2023-10-07T04:01:19.574Z,5.30
2023-10-07T04:02:36.859Z,5.82
2023-10-07T04:03:41.150Z,5.72
2023-10-07T04:04:43.721Z,4.50
2023-10-07T04:05:50.768Z,4.93
2023-10-07T04:06:54.044Z,5.53
2023-10-07T04:07:56.978Z,5.28
2023-10-07T04:09:09.195Z,5.55
2023-10-07T04:10:32.752Z,5.10
2023-10-07T04:11:39.468Z,4.60
2023-10-07T04:12:45.441Z,4.78
2023-10-07T04:13:48.021Z,5.80
2023-10-07T04:14:57.110Z,4.78
2023-10-07T04:16:03.478Z,5.32
2023-10-07T04:17:13.704Z,5.53
2023-10-07T04:18:18.741Z,4.82
2023-10-07T04:19:24.286Z,4.22
2023-10-07T04:20:43.911Z,4.97
2023-10-07T04:21:47.168Z,4.85
2023-10-07T04:23:02.089Z,5.60
2023-10-07T04:24:07.014Z,5.50
2023-10-07T04:25:18.973Z,5.25
2023-10-07T04:26:21.787Z,5.28
2023-10-07T04:27:24.440Z,5.60
2023-10-07T04:28:29.764Z,4.82
2023-10-07T04:29:33.348Z,5.68
2023-10-07T04:30:48.572Z,6.05
2023-10-07T04:31:56.049Z,4.88
2023-10-07T04:33:03.009Z,5.63
2023-10-07T04:34:12.968Z,6.05
2023-10-07T04:35:21.366Z,5.55
2023-10-07T04:36:47.477Z,5.18
2023-10-07T04:37:56.300Z,5.18
2023-10-07T04:38:59.751Z,6.38
2023-10-07T04:40:08.127Z,4.65
2023-10-07T04:41:22.829Z,6.15
2023-10-07T04:42:36.764Z,4.88
2023-10-07T04:43:50.403Z,5.22
2023-10-07T04:44:53.576Z,5.55
2023-10-07T04:45:58.113Z,5.95
2023-10-07T04:47:20.799Z,5.72
2023-10-07T04:48:32.970Z,5.20
2023-10-07T04:49:39.248Z,5.40
2023-10-07T04:50:41.758Z,4.72
2023-10-07T04:51:44.313Z,6.22
2023-10-07T04:52:53.207Z,5.20
2023-10-07T04:54:00.118Z,5.68
2023-10-07T04:55:03.122Z,5.70
2023-10-07T04:56:07.403Z,5.80
2023-10-07T04:57:11.835Z,5.38
2023-10-07T04:58:17.032Z,5.53
2023-10-07T04:59:19.396Z,6.13
2023-10-07T05:00:48.558Z,5.65
2023-10-07T05:01:58.150Z,5.15
2023-10-07T05:03:16.137Z,4.90
2023-10-07T05:04:19.133Z,5.82
2023-10-07T05:05:25.417Z,6.20
2023-10-07T05:06:29.337Z,6.25
2023-10-07T05:07:33.125Z,5.75
2023-10-07T05:08:35.549Z,5.63
2023-10-07T05:09:38.265Z,6.88
2023-10-07T05:10:42.958Z,5.60
2023-10-07T05:11:47.331Z,5.97
2023-10-07T05:12:52.870Z,5.18
2023-10-07T05:13:57.801Z,5.80
2023-10-07T05:15:02.285Z,6.28
2023-10-07T05:17:12.761Z,4.72
2023-10-07T05:18:17.825Z,5.90
2023-10-07T05:19:24.456Z,6.57
2023-10-07T05:20:30.865Z,5.82
2023-10-07T05:21:38.744Z,5.82
2023-10-07T05:22:41.490Z,5.13
2023-10-07T05:23:43.855Z,5.18
2023-10-07T05:24:48.550Z,5.75
2023-10-07T05:25:51.377Z,5.55
2023-10-07T05:26:53.899Z,6.03
2023-10-07T05:27:57.592Z,5.50
2023-10-07T05:29:06.631Z,5.53
2023-10-07T05:30:14.337Z,5.88
2023-10-07T05:31:18.781Z,5.50
2023-10-07T05:32:22.389Z,4.93
2023-10-07T05:33:29.731Z,5.53
2023-10-07T05:34:35.143Z,5.72
2023-10-07T05:35:40.634Z,6.13
2023-10-07T05:36:43.399Z,5.30
2023-10-07T05:37:47.361Z,5.28
2023-10-07T05:38:51.744Z,4.88
2023-10-07T05:39:54.238Z,5.93
2023-10-07T05:41:01.976Z,5.53
2023-10-07T05:42:05.255Z,5.15
2023-10-07T05:43:07.992Z,5.90
2023-10-07T05:44:11.254Z,5.45
2023-10-07T05:45:16.081Z,5.20
2023-10-07T05:46:21.243Z,4.60
2023-10-07T05:47:25.262Z,5.32
2023-10-07T05:49:32.645Z,4.78
2023-10-07T05:50:40.306Z,5.00
2023-10-07T05:51:45.667Z,5.30
2023-10-07T05:52:48.008Z,4.70
2023-10-07T05:53:50.581Z,5.32
2023-10-07T05:54:52.911Z,5.70
2023-10-07T05:55:55.681Z,5.53
2023-10-07T05:57:03.957Z,4.72
2023-10-07T05:58:06.760Z,5.75
2023-10-07T05:59:11.293Z,5.95
2023-10-07T06:00:14.372Z,4.85
2023-10-07T06:01:18.441Z,5.53
2023-10-07T06:02:21.381Z,6.18
2023-10-07T06:03:26.923Z,6.03
2023-10-07T06:04:29.640Z,5.63
2023-10-07T06:05:32.608Z,5.22
2023-10-07T06:06:36.279Z,5.93
2023-10-07T06:07:40.200Z,6.28
2023-10-07T06:08:43.308Z,7.00
2023-10-07T06:09:45.914Z,6.00
2023-10-07T06:10:53.401Z,5.40
2023-10-07T06:11:59.022Z,5.53
2023-10-07T06:13:09.871Z,6.18
2023-10-07T06:14:13.309Z,5.40
2023-10-07T06:15:17.563Z,5.05
2023-10-07T06:16:20.061Z,5.03
2023-10-07T06:17:22.745Z,5.25
2023-10-07T06:18:25.694Z,5.28
2023-10-07T06:19:28.003Z,4.75
2023-10-07T06:20:33.893Z,5.53
2023-10-07T06:21:36.405Z,5.47
2023-10-07T06:22:40.574Z,5.25
2023-10-07T06:23:43.324Z,4.55
2023-10-07T06:24:46.062Z,5.53
2023-10-07T06:25:53.358Z,4.93
2023-10-07T06:26:55.811Z,5.13
2023-10-07T06:28:01.233Z,4.65
2023-10-07T06:29:20.125Z,5.47
2023-10-07T06:30:23.501Z,5.05
2023-10-07T06:31:33.040Z,5.25
2023-10-07T06:32:50.484Z,5.10
2023-10-07T06:34:02.553Z,4.78
2023-10-07T06:35:11.482Z,4.97
2023-10-07T06:36:16.057Z,5.00
2023-10-07T06:37:27.494Z,5.22
2023-10-07T06:38:30.195Z,6.15
2023-10-07T06:39:33.478Z,7.70
2023-10-07T06:40:37.061Z,7.18
2023-10-07T06:41:44.398Z,5.13
2023-10-07T06:42:46.986Z,4.57
2023-10-07T06:43:53.015Z,5.07
2023-10-07T06:45:06.748Z,6.18
2023-10-07T06:46:12.665Z,5.85
2023-10-07T06:47:15.544Z,5.50
2023-10-07T06:48:24.947Z,5.50
2023-10-07T06:49:28.657Z,5.18
2023-10-07T06:50:32.781Z,4.75
2023-10-07T06:51:37.834Z,5.47
2023-10-07T06:52:40.780Z,5.10
2023-10-07T06:53:47.208Z,5.10
2023-10-07T06:55:05.438Z,5.38
2023-10-07T06:56:15.045Z,4.53
2023-10-07T06:57:20.632Z,6.15
2023-10-07T06:58:24.244Z,4.35
2023-10-07T06:59:30.040Z,5.18
2023-10-07T07:00:48.681Z,4.75
2023-10-07T07:01:53.328Z,5.10
2023-10-07T07:02:59.368Z,5.13
2023-10-07T07:04:15.639Z,5.18
2023-10-07T07:05:18.228Z,5.25
2023-10-07T07:06:34.990Z,4.95
2023-10-07T07:07:39.759Z,4.82
2023-10-07T07:08:42.252Z,4.57
2023-10-07T07:09:44.966Z,4.72
2023-10-07T07:10:52.355Z,4.75
2023-10-07T07:11:54.774Z,5.45
2023-10-07T07:13:06.301Z,4.55
2023-10-07T07:14:09.673Z,4.70
2023-10-07T07:15:27.567Z,4.75
2023-10-07T07:16:30.181Z,4.60
2023-10-07T07:17:35.440Z,5.25
2023-10-07T07:18:41.449Z,4.65
2023-10-07T07:19:45.855Z,4.65
2023-10-07T07:21:58.925Z,5.15
2023-10-07T07:23:11.135Z,5.03
2023-10-07T07:24:13.934Z,4.25
2023-10-07T07:25:20.423Z,5.10
2023-10-07T07:26:23.519Z,4.88
2023-10-07T07:27:27.066Z,4.65
2023-10-07T07:28:31.911Z,4.47
2023-10-07T07:29:35.734Z,4.20
2023-10-07T07:30:38.425Z,4.60
2023-10-07T07:31:40.947Z,4.68
2023-10-07T07:32:45.724Z,4.53
2023-10-07T07:33:52.183Z,4.28
2023-10-07T07:34:57.844Z,4.05
2023-10-07T07:36:00.382Z,4.75
2023-10-07T07:37:04.619Z,4.63
2023-10-07T07:38:24.290Z,4.88
2023-10-07T07:39:31.472Z,4.38
2023-10-07T07:40:42.392Z,4.43
2023-10-07T07:41:57.328Z,4.15
2023-10-07T07:43:00.400Z,4.53
2023-10-07T07:44:05.214Z,4.72
2023-10-07T07:45:16.678Z,4.82
2023-10-07T07:46:19.167Z,4.00
2023-10-07T07:47:22.294Z,4.45
2023-10-07T07:48:26.581Z,4.68
2023-10-07T07:49:29.810Z,4.30
2023-10-07T07:50:37.295Z,4.07
2023-10-07T07:51:41.058Z,4.28
2023-10-07T07:52:44.010Z,4.13
2023-10-07T07:53:46.749Z,4.10
2023-10-07T07:54:49.337Z,4.28
2023-10-07T07:55:56.425Z,3.90
2023-10-07T07:57:03.419Z,4.45
2023-10-07T07:58:11.309Z,4.70
2023-10-07T07:59:16.613Z,5.03
2023-10-07T08:00:22.539Z,4.97
2023-10-07T08:01:30.479Z,4.68
2023-10-07T08:02:37.514Z,4.20
2023-10-07T08:03:40.873Z,4.55
2023-10-07T08:04:48.481Z,5.35
2023-10-07T08:05:51.103Z,4.20
2023-10-07T08:06:53.477Z,4.20
2023-10-07T08:07:56.945Z,4.90
2023-10-07T08:08:59.460Z,3.70
2023-10-07T08:10:05.453Z,3.58
2023-10-07T08:11:08.951Z,4.00
2023-10-07T08:12:11.741Z,4.82
2023-10-07T08:13:18.749Z,4.20
2023-10-07T08:14:23.600Z,4.03
2023-10-07T08:15:25.931Z,4.47
2023-10-07T08:16:28.499Z,3.80
2023-10-07T08:17:31.268Z,3.47
2023-10-07T08:18:35.390Z,4.95
2023-10-07T08:19:39.493Z,4.38
2023-10-07T08:20:47.753Z,3.42
2023-10-07T08:21:54.446Z,4.20
2023-10-07T08:22:57.176Z,3.95
2023-10-07T08:24:07.735Z,3.88
2023-10-07T08:25:10.776Z,3.78
2023-10-07T08:26:24.039Z,3.42
2023-10-07T08:27:45.377Z,4.00
2023-10-07T08:29:08.341Z,3.58
2023-10-07T08:30:14.591Z,3.55
2023-10-07T08:31:36.083Z,3.85
2023-10-07T08:32:39.167Z,4.07
2023-10-07T08:33:42.412Z,4.03
2023-10-07T08:34:49.252Z,4.13
2023-10-07T08:35:53.118Z,3.60
2023-10-07T08:37:00.538Z,3.78
2023-10-07T08:38:20.903Z,4.30
2023-10-07T08:39:28.752Z,3.50
2023-10-07T08:40:41.372Z,3.70
2023-10-07T08:41:49.308Z,3.72
2023-10-07T08:42:52.696Z,3.35
2023-10-07T08:44:16.599Z,3.83
2023-10-07T08:45:24.662Z,4.07
2023-10-07T08:46:29.422Z,3.65
2023-10-07T08:47:41.904Z,3.50
2023-10-07T08:48:53.879Z,3.42
2023-10-07T08:49:57.865Z,3.85
2023-10-07T08:51:00.996Z,3.50
2023-10-07T08:52:10.402Z,3.50
2023-10-07T08:54:19.346Z,3.63
2023-10-07T08:55:23.123Z,3.05
2023-10-07T08:56:29.166Z,3.40
2023-10-07T08:57:36.151Z,3.50
2023-10-07T08:58:43.209Z,3.95
2023-10-07T08:59:57.605Z,4.03
2023-10-07T09:01:00.556Z,3.50
2023-10-07T09:02:05.269Z,4.38
2023-10-07T09:03:16.349Z,3.75
2023-10-07T09:04:20.210Z,3.72
2023-10-07T09:05:22.606Z,3.40
2023-10-07T09:06:33.724Z,3.63
2023-10-07T09:07:37.879Z,3.78
2023-10-07T09:08:40.544Z,3.10
2023-10-07T09:09:45.993Z,3.47
2023-10-07T09:10:51.878Z,3.25
2023-10-07T09:11:54.580Z,3.63
2023-10-07T09:13:05.331Z,3.75
2023-10-07T09:14:18.951Z,3.70
2023-10-07T09:15:28.406Z,3.30
2023-10-07T09:16:35.392Z,3.72
2023-10-07T09:17:44.544Z,3.05
2023-10-07T09:18:57.399Z,3.30
2023-10-07T09:20:02.757Z,4.00
2023-10-07T09:21:20.584Z,3.42
2023-10-07T09:22:34.247Z,3.83
2023-10-07T09:23:49.131Z,3.45
2023-10-07T09:24:55.708Z,4.35
2023-10-07T09:26:32.521Z,3.35
2023-10-07T09:27:38.516Z,3.35
2023-10-07T09:28:46.333Z,3.50
2023-10-07T09:29:53.031Z,3.28
2023-10-07T09:30:56.738Z,3.85
2023-10-07T09:32:06.059Z,3.85
2023-10-07T09:33:19.084Z,3.95
2023-10-07T09:34:43.586Z,3.17
2023-10-07T09:36:10.830Z,3.70
2023-10-07T09:37:14.890Z,3.47
2023-10-07T09:39:47.670Z,3.30
2023-10-07T09:40:58.513Z,3.63
2023-10-07T09:42:06.309Z,3.47
2023-10-07T09:43:14.514Z,4.35
2023-10-07T09:44:29.653Z,3.83
2023-10-07T09:45:35.323Z,4.07
2023-10-07T09:46:45.849Z,3.72
2023-10-07T09:47:48.703Z,4.38
2023-10-07T09:48:54.306Z,3.88
2023-10-07T09:50:00.722Z,4.50
2023-10-07T09:51:15.956Z,3.53
2023-10-07T09:52:30.396Z,4.32
2023-10-07T09:54:04.012Z,3.50
2023-10-07T09:55:30.211Z,3.85
2023-10-07T09:56:45.138Z,5.78
2023-10-07T09:58:02.073Z,4.35
2023-10-07T09:59:33.642Z,4.32
2023-10-07T10:00:46.104Z,4.93
2023-10-07T10:02:00.057Z,4.22
2023-10-07T10:03:22.348Z,4.22
2023-10-07T10:04:44.621Z,4.03
2023-10-07T10:06:08.553Z,4.15
2023-10-07T10:07:41.335Z,3.40
2023-10-07T10:09:01.300Z,3.20
2023-10-07T10:10:08.095Z,3.10
2023-10-07T10:11:32.709Z,3.85
2023-10-07T10:12:58.325Z,3.40
2023-10-07T10:14:14.006Z,3.42
2023-10-07T10:15:23.739Z,2.80
2023-10-07T10:16:46.113Z,3.67
2023-10-07T10:17:54.767Z,2.70
2023-10-07T10:19:18.949Z,3.47
2023-10-07T10:20:29.126Z,3.75
2023-10-07T10:21:32.026Z,3.67
2023-10-07T10:22:34.593Z,2.80
2023-10-07T10:23:39.174Z,3.53
2023-10-07T10:24:46.103Z,3.08
2023-10-07T10:25:50.341Z,3.60
2023-10-07T10:27:05.701Z,3.95
2023-10-07T10:28:10.089Z,3.95
2023-10-07T10:29:18.616Z,3.35
2023-10-07T10:30:24.229Z,3.80
2023-10-07T10:31:33.626Z,3.65
2023-10-07T10:32:38.056Z,3.35
2023-10-07T10:33:41.288Z,3.00
2023-10-07T10:34:46.681Z,3.60
2023-10-07T10:35:53.613Z,3.67
2023-10-07T10:36:57.473Z,3.00
2023-10-07T10:38:01.081Z,3.40
2023-10-07T10:40:33.295Z,3.28
2023-10-07T10:41:35.850Z,3.00
2023-10-07T10:42:48.695Z,3.10
2023-10-07T10:43:51.358Z,3.80
2023-10-07T10:44:54.496Z,4.03
2023-10-07T10:46:09.335Z,3.20
2023-10-07T10:47:17.237Z,3.63
2023-10-07T10:48:28.354Z,3.20
2023-10-07T10:49:32.000Z,3.97
2023-10-07T10:50:34.642Z,2.60
2023-10-07T10:51:37.249Z,3.22
2023-10-07T10:52:40.268Z,3.60
2023-10-07T10:53:42.859Z,3.30
2023-10-07T10:54:45.492Z,3.28
2023-10-07T10:55:48.067Z,3.40
2023-10-07T10:56:57.183Z,3.47
2023-10-07T10:58:01.378Z,3.15
2023-10-07T10:59:04.018Z,3.13
2023-10-07T11:00:17.848Z,3.15
2023-10-07T11:01:24.753Z,2.97
2023-10-07T11:02:28.332Z,3.75
2023-10-07T11:03:31.837Z,3.85
2023-10-07T11:04:34.881Z,3.45
2023-10-07T11:05:37.590Z,3.35
2023-10-07T11:06:43.079Z,3.20
2023-10-07T11:07:48.167Z,3.10
2023-10-07T11:08:55.886Z,3.65
2023-10-07T11:09:59.085Z,3.78
2023-10-07T11:11:01.649Z,3.47
2023-10-07T11:12:12.746Z,3.53
2023-10-07T11:13:15.532Z,4.00
2023-10-07T11:14:21.935Z,3.97
2023-10-07T11:15:28.303Z,3.28
2023-10-07T11:16:33.843Z,3.00
2023-10-07T11:17:43.038Z,3.58
2023-10-07T11:18:49.031Z,3.17
2023-10-07T11:19:52.977Z,3.00
2023-10-07T11:20:55.745Z,3.40
2023-10-07T11:22:00.810Z,3.15
2023-10-07T11:23:07.578Z,3.08
2023-10-07T11:24:10.356Z,2.95
2023-10-07T11:25:16.234Z,3.28
2023-10-07T11:26:19.803Z,2.92
2023-10-07T11:27:25.332Z,3.35
2023-10-07T11:28:34.696Z,3.42
2023-10-07T11:29:37.590Z,2.90
2023-10-07T11:30:48.310Z,3.53
2023-10-07T11:32:05.727Z,3.15
2023-10-07T11:33:19.142Z,3.45
2023-10-07T11:34:34.307Z,3.45
2023-10-07T11:35:38.591Z,3.00
2023-10-07T11:36:47.755Z,4.00
2023-10-07T11:37:59.795Z,3.17
2023-10-07T11:39:07.820Z,3.80
2023-10-07T11:40:12.904Z,3.45
2023-10-07T11:41:17.748Z,3.00
2023-10-07T11:42:22.566Z,3.28
2023-10-07T11:43:24.987Z,3.53
2023-10-07T11:44:28.469Z,3.00
2023-10-07T11:45:34.367Z,3.55
2023-10-07T11:46:42.427Z,3.03
2023-10-07T11:47:46.198Z,2.90
2023-10-07T11:48:48.869Z,3.40
2023-10-07T11:49:51.619Z,3.10
2023-10-07T11:50:55.918Z,2.50
2023-10-07T11:51:58.759Z,2.95
2023-10-07T11:53:02.082Z,3.30
2023-10-07T11:54:06.910Z,4.80
2023-10-07T11:55:10.629Z,2.88
2023-10-07T11:56:13.772Z,3.10
2023-10-07T11:57:19.735Z,3.05
2023-10-07T11:58:22.462Z,2.97
2023-10-07T11:59:25.392Z,3.28
2023-10-07T12:00:35.884Z,2.70
2023-10-07T12:01:39.624Z,3.38
2023-10-07T12:02:42.059Z,3.40
2023-10-07T12:03:45.105Z,3.05
2023-10-07T12:04:49.254Z,2.88
2023-10-07T12:05:52.373Z,3.00
2023-10-07T12:06:55.194Z,3.00
2023-10-07T12:08:03.575Z,2.58
2023-10-07T12:09:08.906Z,3.33
2023-10-07T12:10:16.712Z,2.83
2023-10-07T12:11:19.876Z,3.40
2023-10-07T12:12:23.525Z,3.20
2023-10-07T12:13:28.550Z,2.90
2023-10-07T12:14:32.639Z,2.75
2023-10-07T12:16:45.286Z,2.45
2023-10-07T12:17:51.790Z,3.03
2023-10-07T12:18:54.520Z,2.55
2023-10-07T12:19:57.015Z,2.97
2023-10-07T12:21:02.528Z,2.38
2023-10-07T12:22:07.273Z,2.67
2023-10-07T12:23:10.169Z,3.55
2023-10-07T12:24:13.170Z,3.58
2023-10-07T12:25:17.578Z,2.97
2023-10-07T12:26:20.310Z,3.30
2023-10-07T12:27:23.143Z,2.85
2023-10-07T12:28:26.002Z,2.67
2023-10-07T12:29:29.164Z,2.58
2023-10-07T12:30:31.764Z,2.70
2023-10-07T12:31:34.273Z,2.80
2023-10-07T12:32:36.538Z,3.38
2023-10-07T12:33:43.856Z,2.80
2023-10-07T12:34:49.377Z,3.38
2023-10-07T12:35:52.484Z,2.60
2023-10-07T12:36:55.036Z,2.78
2023-10-07T12:37:57.575Z,2.47
2023-10-07T12:39:00.332Z,2.55
2023-10-07T12:40:02.725Z,2.60
2023-10-07T12:41:08.340Z,2.33
2023-10-07T12:42:13.615Z,2.47
2023-10-07T12:43:16.221Z,2.30
2023-10-07T12:44:19.280Z,3.03
2023-10-07T12:45:21.802Z,2.50
2023-10-07T12:46:24.422Z,2.55
2023-10-07T12:47:30.650Z,2.47
2023-10-07T12:48:33.211Z,2.83
2023-10-07T12:49:40.223Z,2.25
2023-10-07T12:50:45.776Z,2.55
2023-10-07T12:51:48.236Z,2.15
2023-10-07T12:52:52.392Z,2.25
2023-10-07T12:55:02.961Z,1.95
2023-10-07T12:56:15.093Z,2.22
2023-10-07T12:57:17.808Z,1.65
2023-10-07T12:58:21.171Z,2.50
2023-10-07T12:59:24.762Z,2.20
2023-10-07T13:00:33.374Z,2.47
2023-10-07T13:01:36.077Z,2.05
2023-10-07T13:02:38.923Z,1.77
2023-10-07T13:03:44.300Z,1.75
2023-10-07T13:04:50.538Z,1.98
2023-10-07T13:05:55.386Z,2.45
2023-10-07T13:07:11.796Z,2.20
2023-10-07T13:08:16.991Z,2.00
2023-10-07T13:09:19.462Z,1.75
2023-10-07T13:10:22.622Z,2.03
2023-10-07T13:11:28.427Z,2.45
2023-10-07T13:12:34.339Z,2.03
2023-10-07T13:13:37.119Z,1.60
2023-10-07T13:14:42.357Z,2.40
2023-10-07T13:15:46.970Z,1.67
2023-10-07T13:16:58.341Z,1.98
2023-10-07T13:18:02.516Z,1.88
2023-10-07T13:19:05.201Z,2.30
2023-10-07T13:20:08.867Z,2.00
2023-10-07T13:22:25.101Z,2.05
2023-10-07T13:23:27.694Z,2.03
2023-10-07T13:24:33.026Z,2.50
2023-10-07T13:25:35.909Z,2.20
2023-10-07T13:26:38.695Z,2.08
2023-10-07T13:27:41.912Z,2.08
2023-10-07T13:28:49.861Z,2.25
2023-10-07T13:29:52.673Z,2.22
2023-10-07T13:30:55.425Z,2.08
2023-10-07T13:31:58.098Z,2.38
2023-10-07T13:33:01.512Z,2.28
2023-10-07T13:34:08.227Z,1.52
2023-10-07T13:35:10.946Z,1.60
2023-10-07T13:36:15.169Z,2.00
2023-10-07T13:37:19.170Z,2.08
2023-10-07T13:39:26.062Z,2.60
2023-10-07T13:40:31.503Z,2.22
2023-10-07T13:41:40.227Z,2.15
2023-10-07T13:42:53.152Z,1.90
2023-10-07T13:43:55.428Z,1.85
2023-10-07T13:44:57.869Z,2.00
2023-10-07T13:46:14.738Z,2.42
2023-10-07T13:47:18.709Z,1.95
2023-10-07T13:48:23.891Z,2.08
2023-10-07T13:49:26.438Z,2.15
2023-10-07T13:50:31.558Z,2.03
2023-10-07T13:51:41.609Z,2.30
2023-10-07T13:53:00.871Z,2.00
2023-10-07T13:54:22.422Z,2.22
2023-10-07T13:55:56.617Z,1.20
2023-10-07T13:57:10.680Z,1.95
2023-10-07T13:58:16.866Z,1.60
2023-10-07T13:59:19.486Z,1.67
2023-10-07T14:00:29.808Z,1.95
2023-10-07T14:01:33.665Z,1.90
2023-10-07T14:03:41.278Z,1.67
2023-10-07T14:04:44.021Z,1.95
2023-10-07T14:06:02.477Z,1.42
2023-10-07T14:07:06.545Z,1.70
2023-10-07T14:09:26.167Z,1.60
2023-10-07T14:10:29.161Z,1.90
2023-10-07T14:11:33.422Z,2.17
2023-10-07T14:12:37.786Z,2.20
2023-10-07T14:13:41.739Z,2.60
2023-10-07T14:14:44.780Z,2.50
2023-10-07T14:15:50.444Z,2.70
2023-10-07T14:17:00.211Z,2.30
2023-10-07T14:18:03.474Z,2.30
2023-10-07T14:19:08.529Z,2.42
2023-10-07T14:20:15.391Z,2.22
2023-10-07T14:21:20.782Z,2.25
2023-10-07T14:22:23.100Z,2.90
2023-10-07T14:23:27.393Z,2.65
2023-10-07T14:24:31.016Z,2.33
2023-10-07T14:25:34.743Z,2.30
2023-10-07T14:26:37.106Z,2.38
2023-10-07T14:27:39.801Z,2.50
2023-10-07T14:28:46.889Z,2.78
2023-10-07T14:29:50.881Z,2.63
2023-10-07T14:30:54.202Z,2.10
2023-10-07T14:31:57.353Z,2.53
2023-10-07T14:33:00.082Z,2.40
2023-10-07T14:34:04.700Z,2.47
2023-10-07T14:35:12.731Z,2.30
2023-10-07T14:36:15.158Z,2.60
2023-10-07T14:37:17.581Z,2.85
2023-10-07T14:38:21.603Z,2.05
2023-10-07T14:39:30.034Z,2.70
2023-10-07T14:40:47.625Z,2.15
2023-10-07T14:41:49.956Z,2.28
2023-10-07T14:42:52.871Z,2.70
2023-10-07T14:43:55.284Z,2.45
2023-10-07T14:44:58.068Z,2.40
2023-10-07T14:46:00.424Z,2.55
2023-10-07T14:47:02.910Z,2.30
2023-10-07T14:48:06.932Z,2.20
2023-10-07T14:49:10.482Z,2.30
2023-10-07T14:50:13.175Z,2.05
2023-10-07T14:51:19.213Z,2.17
2023-10-07T14:52:22.219Z,2.13
2023-10-07T14:53:26.749Z,2.45
2023-10-07T14:54:30.483Z,2.58
2023-10-07T14:55:36.044Z,2.10
2023-10-07T14:56:43.082Z,2.50
2023-10-07T14:57:46.481Z,2.47
2023-10-07T14:58:52.811Z,2.50
2023-10-07T14:59:55.726Z,2.45
2023-10-07T15:00:58.151Z,2.50
2023-10-07T15:02:03.754Z,2.65
2023-10-07T15:03:06.712Z,1.80
2023-10-07T15:04:09.559Z,2.10
2023-10-07T15:05:12.335Z,2.42
2023-10-07T15:06:16.405Z,2.30